Time;durP1;ratioP1;P1;durP2;ratioP2;P2;SDS_P1;SDS_P2;PMS_P1;PMS_P2;Temp;Humidity;BMP_temperature;BMP_pressure;BME280_temperature;BME280_humidity;BME280_pressure;Samples;Min_cycle;Max_cycle;Signal;HPM_P1;HPM_P2
2022/09/08 00:08:51;;;;;;;1.60;1.20;;;;;;;17.33;100.00;97387.84;18366992;32;20081;-61
2022/09/08 00:18:53;;;;;;;4.28;1.85;;;;;;;17.27;100.00;97383.66;18387827;32;20057;-61
2022/09/08 00:28:57;;;;;;;3.47;1.20;;;;;;;17.23;100.00;97366.31;18483639;32;20089;-61
2022/09/08 00:39:00;;;;;;;1.50;1.00;;;;;;;17.19;100.00;97347.00;18503275;32;20350;-61
2022/09/08 00:49:08;;;;;;;3.67;1.35;;;;;;;17.09;100.00;97339.94;18476397;32;20096;-61
2022/09/08 00:59:13;;;;;;;1.35;0.90;;;;;;;16.99;100.00;97323.84;18436212;32;20108;-61
2022/09/08 01:19:49;;;;;;;1.25;0.70;;;;;;;16.85;100.00;97296.66;18436434;32;20365;-61
2022/09/08 01:29:59;;;;;;;1.70;0.80;;;;;;;16.73;100.00;97299.22;18435380;32;20077;-61
2022/09/08 01:40:03;;;;;;;1.20;0.60;;;;;;;16.59;100.00;97332.13;18434067;32;20058;-61
2022/09/08 01:50:06;;;;;;;1.85;1.00;;;;;;;16.57;100.00;97329.72;18434201;32;20420;-61
2022/09/08 02:00:10;;;;;;;2.23;0.87;;;;;;;16.55;100.00;97326.53;18496366;32;20064;-60
2022/09/08 02:10:13;;;;;;;2.13;0.80;;;;;;;16.54;100.00;97344.00;18497744;32;20061;-61
2022/09/08 02:20:15;;;;;;;1.07;0.60;;;;;;;16.43;100.00;97332.56;18490613;32;20121;-61
2022/09/08 02:30:18;;;;;;;1.83;0.70;;;;;;;16.36;100.00;97350.53;18496702;32;20104;-61
2022/09/08 02:40:21;;;;;;;4.20;0.87;;;;;;;16.34;100.00;97358.22;18482377;32;20159;-61
2022/09/08 02:50:24;;;;;;;0.85;0.50;;;;;;;16.36;100.00;97355.97;18481737;32;20052;-61
2022/09/08 03:00:32;;;;;;;1.25;0.73;;;;;;;16.38;100.00;97349.09;18504174;32;20057;-62
2022/09/08 03:10:35;;;;;;;1.40;0.80;;;;;;;16.31;100.00;97354.22;18515626;32;20053;-61
2022/09/08 03:20:41;;;;;;;4.43;0.93;;;;;;;16.31;100.00;97334.28;18511570;32;20079;-61
2022/09/08 03:30:44;;;;;;;1.40;0.55;;;;;;;16.21;100.00;97327.19;18516362;32;20053;-61
2022/09/08 03:40:47;;;;;;;1.02;0.60;;;;;;;16.17;100.00;97313.41;18516116;32;20120;-61
2022/09/08 03:50:49;;;;;;;5.95;0.50;;;;;;;16.14;100.00;97333.09;18377340;32;20508;-61
2022/09/08 04:00:52;;;;;;;0.68;0.45;;;;;;;16.00;100.00;97332.41;18377475;32;20089;-61
2022/09/08 04:10:54;;;;;;;2.17;0.50;;;;;;;16.00;100.00;97352.28;18360542;32;20412;-61
2022/09/08 04:20:59;;;;;;;1.25;0.52;;;;;;;15.97;100.00;97363.03;18475651;32;20471;-61
2022/09/08 04:31:04;;;;;;;1.52;0.60;;;;;;;15.98;100.00;97373.63;18490102;32;20057;-61
2022/09/08 04:41:10;;;;;;;0.62;0.40;;;;;;;15.97;100.00;97379.41;18503440;32;20449;-61
2022/09/08 04:51:16;;;;;;;0.30;0.30;;;;;;;15.82;100.00;97378.66;18502550;32;20456;-61
2022/09/08 05:01:23;;;;;;;0.80;0.30;;;;;;;15.79;100.00;97398.34;18495572;32;20083;-61
2022/09/08 05:11:28;;;;;;;0.93;0.40;;;;;;;15.80;100.00;97407.34;18501627;32;20065;-61
2022/09/08 05:21:33;;;;;;;0.90;0.50;;;;;;;15.68;100.00;97410.63;18499818;32;20437;-61
2022/09/08 05:31:35;;;;;;;3.22;0.50;;;;;;;15.59;100.00;97416.81;18486414;32;20102;-61
2022/09/08 05:41:38;;;;;;;0.52;0.40;;;;;;;15.58;100.00;97423.38;18485777;32;20444;-62
2022/09/08 05:51:42;;;;;;;0.75;0.43;;;;;;;15.58;100.00;97431.53;18498677;32;20408;-61
2022/09/08 06:01:45;;;;;;;1.08;0.60;;;;;;;15.58;100.00;97442.44;18484591;32;20072;-61
2022/09/08 06:11:47;;;;;;;1.30;0.43;;;;;;;15.59;100.00;97438.63;18484080;32;20087;-61
2022/09/08 06:21:50;;;;;;;1.92;0.40;;;;;;;15.66;100.00;97459.16;18497758;32;20065;-62
2022/09/08 06:32:02;;;;;;;1.65;0.40;;;;;;;15.72;100.00;97474.31;18482462;32;20052;-62
2022/09/08 06:43:04;;;;;;;0.70;0.40;;;;;;;15.85;100.00;97495.25;18482283;32;20057;-62
2022/09/08 06:53:24;;;;;;;0.90;0.55;;;;;;;15.96;100.00;97484.13;18216051;32;20066;-61
2022/09/08 07:03:49;;;;;;;0.98;0.43;;;;;;;16.29;100.00;97495.56;18156115;32;20112;-62
2022/09/08 07:14:20;;;;;;;0.55;0.40;;;;;;;16.52;100.00;97496.34;18168109;32;20088;-62
2022/09/08 07:24:36;;;;;;;0.70;0.50;;;;;;;16.65;100.00;97504.75;18283765;32;20065;-61
2022/09/08 07:34:49;;;;;;;1.30;0.60;;;;;;;16.87;100.00;97501.97;18430552;32;20438;-61
2022/09/08 07:45:00;;;;;;;;;;;;;;;16.90;100.00;97497.84;18430423;32;20098;-62
2022/09/08 07:55:27;;;;;;;0.73;0.50;;;;;;;17.08;100.00;97506.91;18468067;32;19955;-62
2022/09/08 08:05:45;;;;;;;1.30;0.60;;;;;;;17.36;100.00;97502.00;18505484;32;20072;-61
2022/09/08 08:16:07;;;;;;;1.45;0.55;;;;;;;17.66;100.00;97510.38;18491126;32;20053;-62
2022/09/08 08:26:46;;;;;;;8.05;0.60;;;;;;;18.32;100.00;97512.12;18465389;32;20070;-61
2022/09/08 08:36:56;;;;;;;0.85;0.50;;;;;;;18.39;98.70;97515.22;18497201;32;20095;-62
2022/09/08 08:47:38;;;;;;;2.78;0.60;;;;;;;18.55;100.00;97522.91;18503022;32;20068;-62
2022/09/08 08:58:00;;;;;;;3.58;0.65;;;;;;;18.83;100.00;97523.31;18363991;32;20117;-62
2022/09/08 09:08:36;;;;;;;2.27;0.40;;;;;;;18.71;92.66;97520.44;18363759;32;20472;-62
2022/09/08 09:19:10;;;;;;;3.00;0.62;;;;;;;18.90;92.73;97529.09;18350714;32;20191;-60
2022/09/08 09:29:20;;;;;;;1.73;0.62;;;;;;;19.16;89.61;97530.94;18389475;32;20068;-60
2022/09/08 09:39:59;;;;;;;2.30;0.70;;;;;;;19.71;85.60;97526.41;18499809;32;20057;-62
2022/09/08 09:50:22;;;;;;;2.03;0.50;;;;;;;19.59;86.56;97532.59;18484938;32;20109;-62
2022/09/08 10:00:33;;;;;;;1.12;0.45;;;;;;;18.93;92.89;97522.16;18432865;32;20057;-62
2022/09/08 10:10:46;;;;;;;2.10;0.82;;;;;;;19.20;86.80;97514.59;18432112;32;20072;-62
2022/09/08 10:21:32;;;;;;;2.30;0.53;;;;;;;19.93;84.02;97514.31;18433125;32;20083;-61
2022/09/08 10:31:42;;;;;;;1.35;0.47;;;;;;;19.94;83.71;97515.13;18431010;32;20057;-62
2022/09/08 10:42:31;;;;;;;2.25;0.50;;;;;;;20.31;82.57;97512.53;18431946;32;20054;-62
2022/09/08 10:53:12;;;;;;;3.40;0.50;;;;;;;20.50;71.86;97503.78;18439830;32;20353;-62
2022/09/08 11:04:02;;;;;;;3.50;0.57;;;;;;;20.81;74.40;97491.50;18495529;32;20406;-62
2022/09/08 11:14:29;;;;;;;2.53;0.60;;;;;;;21.13;75.99;97486.25;18218974;32;20127;-63
2022/09/08 11:25:14;;;;;;;3.42;0.55;;;;;;;21.17;72.01;97473.41;18239436;32;20112;-62
2022/09/08 11:35:37;;;;;;;1.70;0.40;;;;;;;21.73;71.10;97480.22;18230502;32;20432;-63
2022/09/08 11:46:10;;;;;;;1.10;0.50;;;;;;;22.13;73.62;97471.13;18361264;32;20049;-62
2022/09/08 11:56:24;;;;;;;1.27;0.20;;;;;;;21.98;63.34;97481.75;18505784;32;20041;-63
2022/09/08 12:06:54;;;;;;;4.68;0.62;;;;;;;21.32;67.25;97502.97;18492114;32;20141;-63
2022/09/08 12:17:18;;;;;;;3.55;0.60;;;;;;;21.42;64.02;97498.12;18504821;32;20048;-64
2022/09/08 12:27:40;;;;;;;1.20;0.37;;;;;;;22.32;61.11;97487.81;18490515;32;20071;-63
2022/09/08 12:38:03;;;;;;;1.70;0.47;;;;;;;22.39;64.46;97492.72;18489040;32;20064;-62
2022/09/08 12:48:10;;;;;;;1.85;0.60;;;;;;;21.93;72.54;97490.25;18503057;32;20064;-63
2022/09/08 12:58:23;;;;;;;4.05;0.65;;;;;;;22.05;70.56;97491.34;18502581;32;20076;-63
2022/09/08 13:08:56;;;;;;;1.40;0.40;;;;;;;23.02;58.97;97480.94;18495263;32;20049;-63
2022/09/08 13:19:30;;;;;;;2.12;0.40;;;;;;;22.85;63.82;97490.38;18501316;32;20089;-63
2022/09/08 13:30:09;;;;;;;4.32;0.60;;;;;;;23.24;51.59;97497.22;18500780;32;20057;-62
2022/09/08 13:40:39;;;;;;;1.33;0.45;;;;;;;23.77;56.95;97488.56;18234674;32;20121;-62
2022/09/08 13:50:54;;;;;;;2.97;0.60;;;;;;;24.20;57.23;97492.19;18221228;32;20074;-62
2022/09/08 14:01:13;;;;;;;0.73;0.40;;;;;;;24.96;59.78;97491.63;18233238;32;20111;-61
2022/09/08 14:12:08;;;;;;;2.10;0.50;;;;;;;25.22;63.23;97481.75;18289766;32;20390;-62
2022/09/08 14:22:33;;;;;;;4.03;0.40;;;;;;;24.77;57.69;97472.34;18232579;32;20054;-62
2022/09/08 14:32:57;;;;;;;1.30;0.60;;;;;;;24.07;56.16;97460.41;18232013;32;20116;-62
2022/09/08 14:43:19;;;;;;;0.90;0.40;;;;;;;23.69;58.43;97459.97;18231642;32;20119;-63
2022/09/08 14:53:55;;;;;;;2.42;0.30;;;;;;;23.13;59.61;97461.94;18343356;32;20102;-62
2022/09/08 15:04:09;;;;;;;6.50;0.40;;;;;;;22.72;60.74;97454.97;18495796;32;20420;-61
2022/09/08 15:14:26;;;;;;;2.65;0.40;;;;;;;22.07;60.71;97445.00;18495552;32;20065;-62
2022/09/08 15:24:34;;;;;;;0.90;0.30;;;;;;;21.54;64.09;97445.09;18495172;32;20101;-62
2022/09/08 15:34:42;;;;;;;0.93;0.30;;;;;;;21.28;60.57;97441.56;18494949;32;20053;-62
2022/09/08 15:45:20;;;;;;;0.60;0.13;;;;;;;20.96;64.74;97438.59;18480291;32;20052;-62
2022/09/08 15:55:37;;;;;;;0.95;0.32;;;;;;;20.60;66.00;97420.94;18493981;32;20053;-62
2022/09/08 16:05:54;;;;;;;1.37;0.50;;;;;;;20.35;65.72;97424.78;18495553;32;20075;-62
2022/09/08 16:16:01;;;;;;;0.47;0.30;;;;;;;20.13;67.12;97424.03;18505231;32;20048;-62
2022/09/08 16:26:19;;;;;;;1.48;0.50;;;;;;;19.95;67.16;97424.25;18478406;32;20133;-62
2022/09/08 16:36:27;;;;;;;1.42;0.37;;;;;;;19.66;70.71;97424.31;18504039;32;20057;-61
2022/09/08 16:46:35;;;;;;;0.68;0.37;;;;;;;19.32;73.40;97421.50;18503104;32;20411;-61
2022/09/08 16:56:50;;;;;;;0.75;0.30;;;;;;;19.06;72.87;97414.28;18502789;32;20053;-62
2022/09/08 17:07:01;;;;;;;0.88;0.30;;;;;;;18.77;78.07;97404.91;18502253;32;20528;-62
2022/09/08 17:17:46;;;;;;;1.35;0.40;;;;;;;18.53;79.54;97402.75;18501294;32;20056;-63
2022/09/08 17:28:30;;;;;;;0.65;0.25;;;;;;;18.18;84.21;97408.34;18480853;32;20464;-62
2022/09/08 17:38:38;;;;;;;0.40;0.23;;;;;;;17.91;88.64;97396.69;18492440;32;20094;-62
2022/09/08 17:48:52;;;;;;;0.68;0.22;;;;;;;17.61;90.79;97403.94;18485868;32;20456;-62
2022/09/08 17:59:28;;;;;;;0.95;0.30;;;;;;;17.32;92.73;97397.19;18499084;32;20425;-62
2022/09/08 18:09:30;;;;;;;1.95;0.30;;;;;;;16.89;92.77;97403.38;18220802;32;20494;-62
2022/09/08 18:19:38;;;;;;;1.00;0.30;;;;;;;16.60;95.17;97416.41;18219830;32;20075;-62
2022/09/08 18:29:53;;;;;;;1.33;0.35;;;;;;;16.37;96.49;97421.16;18231863;32;20082;-62
2022/09/08 18:40:12;;;;;;;1.90;0.28;;;;;;;16.18;97.28;97426.81;18288185;32;20380;-62
2022/09/08 18:50:39;;;;;;;0.88;0.40;;;;;;;15.96;98.43;97426.88;18483112;32;20411;-62
2022/09/08 19:01:09;;;;;;;3.53;0.60;;;;;;;15.79;100.00;97447.41;18487915;32;20049;-63
2022/09/08 19:11:38;;;;;;;3.15;0.73;;;;;;;15.55;100.00;97453.16;18495703;32;20097;-62
2022/09/08 19:21:44;;;;;;;1.42;0.50;;;;;;;15.33;100.00;97462.09;18476334;32;20361;-62
2022/09/08 19:32:03;;;;;;;0.98;0.47;;;;;;;15.18;100.00;97468.66;18480725;32;20060;-62
2022/09/08 19:42:18;;;;;;;1.02;0.60;;;;;;;15.04;100.00;97469.50;18497962;32;20065;-62
2022/09/08 19:52:36;;;;;;;1.90;0.80;;;;;;;14.94;100.00;97461.53;18506538;32;20050;-62
2022/09/08 20:03:14;;;;;;;1.62;0.98;;;;;;;14.88;100.00;97479.06;18492043;32;20084;-62
2022/09/08 20:13:26;;;;;;;1.37;0.75;;;;;;;14.81;100.00;97484.91;18491246;32;20037;-62
2022/09/08 20:23:44;;;;;;;1.70;0.55;;;;;;;14.69;100.00;97488.16;18491038;32;20076;-62
2022/09/08 20:34:29;;;;;;;4.03;0.85;;;;;;;14.58;100.00;97492.16;18504496;32;20050;-62
2022/09/08 20:44:33;;;;;;;1.55;0.70;;;;;;;14.48;100.00;97493.13;18238610;32;20127;-62
2022/09/08 20:54:42;;;;;;;1.50;0.60;;;;;;;14.34;100.00;97493.09;18237326;32;20100;-62
2022/09/08 21:05:02;;;;;;;1.33;0.43;;;;;;;14.24;100.00;97490.56;18237384;32;20074;-61
2022/09/08 21:15:13;;;;;;;0.95;0.45;;;;;;;14.14;100.00;97482.56;18280340;32;20384;-62
2022/09/08 21:25:26;;;;;;;0.57;0.45;;;;;;;14.02;100.00;97469.47;18501173;32;20445;-62
2022/09/08 21:35:37;;;;;;;1.95;0.60;;;;;;;13.98;100.00;97474.69;18500553;32;20065;-62
2022/09/08 21:45:45;;;;;;;1.60;0.55;;;;;;;14.10;100.00;97470.69;18485702;32;20095;-62
2022/09/08 21:55:49;;;;;;;2.00;0.40;;;;;;;14.04;100.00;97478.91;18360978;32;20445;-62
2022/09/08 22:05:58;;;;;;;0.70;0.45;;;;;;;13.98;100.00;97485.56;18334101;32;20057;-62
2022/09/08 22:16:19;;;;;;;0.85;0.37;;;;;;;13.89;100.00;97474.56;18360174;32;20355;-62
2022/09/08 22:26:32;;;;;;;0.73;0.35;;;;;;;13.74;100.00;97477.50;18385603;32;20397;-62
2022/09/08 22:37:15;;;;;;;1.60;0.60;;;;;;;13.70;100.00;97473.75;18482950;32;20049;-62
2022/09/08 22:47:40;;;;;;;0.70;0.40;;;;;;;13.72;100.00;97466.94;18231344;32;20109;-61
2022/09/08 22:57:52;;;;;;;1.00;0.55;;;;;;;13.75;100.00;97470.19;18231237;32;20053;-62
2022/09/08 23:07:56;;;;;;;1.55;0.70;;;;;;;13.64;100.00;97480.38;18231006;32;20066;-62
2022/09/08 23:18:07;;;;;;;1.35;0.70;;;;;;;13.54;100.00;97479.44;18455184;32;20068;-62
2022/09/08 23:28:12;;;;;;;1.67;0.73;;;;;;;13.49;100.00;97475.97;18421294;32;20117;-62
2022/09/08 23:38:18;;;;;;;5.22;0.90;;;;;;;13.47;100.00;97486.31;18305844;32;20107;-62
2022/09/08 23:48:23;;;;;;;1.17;0.60;;;;;;;13.49;100.00;97493.06;18305555;32;20134;-62
2022/09/08 23:58:25;;;;;;;1.35;0.60;;;;;;;13.62;100.00;97526.03;18291654;32;20084;-62
